KROC/ROC METAR and TAF weather

Enter ICAO airport designator
Station Type Date Time Source
KROC METAR 2024/04/18 06:54 UTC NOAA

KROC 180654Z 27003KT 7SM -DZ OVC021 12/11 A2980 RMK AO2 RAE42DZB49 SLP097 P0002 T01170106


Station Type Date Time Source
KROC Decoded METAR 2024/04/18 06:54 UTC NOAA

GREATER ROCHESTER INTERNATIONAL , NY, United States (KROC) 43-07N 077-41W 178M
Apr 18, 2024 - 02:54 AM EDT / 2024.04.18 0654 UTC
Wind: from the W (270 degrees) at 3 MPH (3 KT):0
Visibility: 7 mile(s):0
Sky conditions: overcast
Weather: light drizzle
Precipitation last hour: 0.02 inches
Temperature: 53.1 F (11.7 C)
Dew Point: 51.1 F (10.6 C)
Relative Humidity: 92%
Pressure (altimeter): 29.8 in. Hg (1009 hPa)
ob: KROC 180654Z 27003KT 7SM -DZ OVC021 12/11 A2980 RMK AO2 RAE42DZB49 SLP097 P0002 T01170106
cycle: 7

Station Type Date Time Source
KROC TAF 2024/04/18 06:46 UTC NOAA